Latest Coastal Weather Observations for Montague Island

IDN60701

Issued at 10:31 am EDT Wednesday 22 February 2017 (issued every 10 minutes, with the page automatically refreshed every 10 minutes)

About coastal observations | Map of coastal stations | Coastal observations for NSW | Marine services | Other Formats
Station Details ID: 069017 Name: MONTAGUE ISLAND LIGHTHOUSE Lat: -36.25 Lon: 150.23 Height: 52.0 m
Data from the previous 72 hours. | See also: Recent months at Montague Island
Date/Time
EDT
Temp
°C
Wind Pressure Rain since
9am
mm
Weather Cloud Vis
km
Sea
Height
m
Swell
Dir  Spd
kts
Gust
kts
hPa Trend Height
m
Period
s
Dir
22/10:30am 22.7 NNE 9 12 1019.4 - 0.0 - - - - - - -
22/10:00am 22.2 N 7 10 1019.7 - 0.0 - - - - - - -
22/09:30am 21.8 N 7 9 1019.8 - 0.0 - - - - - - -
22/09:00am 21.0 NNW 7 9 1019.7 - 0.0 - - - - - - -
22/08:30am 20.0 NNW 6 8 1019.9 - 0.0 - - - - - - -
22/08:00am 19.7 NNW 6 7 1019.7 - 0.0 - - - - - - -
22/07:30am 19.6 NNW 5 7 1019.5 - 0.0 - - - - - - -
22/07:00am 19.5 NNW 5 7 1019.2 - 0.0 - - - - - - -
22/06:30am 19.4 N 3 5 1018.9 - 0.0 - - - - - - -
22/06:00am 19.4 SSE 1 2 1018.7 - 0.0 - - - - - - -
22/05:30am 19.2 CALM 0 1 1018.6 - 0.0 - - - - - - -
22/05:00am 19.3 SSW 2 3 1018.6 - 0.0 - - - - - - -
22/04:30am 19.3 SW 3 4 1018.6 - 0.0 - - - - - - -
22/04:00am 19.5 WSW 4 6 1018.8 - 0.0 - - - - - - -
22/03:30am 19.6 WSW 5 7 1018.9 - 0.0 - - - - - - -
22/03:00am 19.8 WSW 6 7 1019.2 - 0.0 - - - - - - -
22/02:30am 20.3 WSW 5 7 1019.4 - 0.0 - - - - - - -
22/02:00am 20.9 WNW 5 7 1019.5 - 0.0 - - - - - - -
22/01:30am 21.7 NE 7 9 1019.8 - 0.0 - - - - - - -
22/01:00am 21.6 NE 7 9 1020.4 - 0.0 - - - - - - -
22/12:30am 21.4 NE 6 8 1020.8 - 0.0 - - - - - - -
22/12:00am 21.4 NE 7 9 1021.2 - 0.0 - - - - - - -
 
Date/Time
EDT
Temp
°C
Wind Pressure Rain since
9am
mm
Weather Cloud Vis
km
Sea
Height
m
Swell
Dir  Spd
kts
Gust
kts
hPa Trend Height
m
Period
s
Dir
21/11:30pm 21.3 NE 7 9 1021.4 - 0.0 - - - - - - -
21/11:00pm 21.3 NE 8 10 1021.5 - 0.0 - - - - - - -
21/10:30pm 21.2 NE 7 11 1021.5 - 0.0 - - - - - - -
21/10:00pm 21.2 NE 8 11 1021.5 - 0.0 - - - - - - -
21/09:30pm 21.2 NE 9 11 1021.4 - 0.0 - - - - - - -
21/09:00pm 21.1 ENE 9 10 1021.3 - 0.0 - - - - - - -
21/08:30pm 20.9 ENE 8 10 1021.0 - 0.0 - - - - - - -
21/08:00pm 20.7 E 7 9 1020.9 - 0.0 - - - - - - -
21/07:30pm 20.7 E 7 9 1020.7 - 0.0 - - - - - - -
21/07:00pm 20.6 ENE 6 8 1020.4 - 0.0 - - - - - - -
21/06:30pm 20.7 ENE 7 9 1020.1 - 0.0 - - - - - - -
21/06:00pm 20.9 ENE 7 10 1019.9 - 0.0 - - - - - - -
21/05:30pm 21.1 E 7 9 1019.8 - 0.0 - - - - - - -
21/05:00pm 21.2 E 8 10 1019.8 - 0.0 - - - - - - -
21/04:30pm 21.1 E 8 10 1019.7 - 0.0 - - - - - - -
21/04:00pm 21.4 E 10 11 1019.5 - 0.0 - - - - - - -
21/03:30pm 21.4 E 10 12 1019.5 - 0.0 - - - - - - -
21/03:00pm 21.6 E 10 13 1019.5 - 0.0 - - - - - - -
21/02:30pm 21.6 E 10 12 1019.9 - 0.0 - - - - - - -
21/02:00pm 21.0 E 10 12 1020.2 - 0.0 - - - - - - -
21/01:30pm 21.5 E 9 10 1020.2 - 0.0 - - - - - - -
21/01:00pm 21.3 E 10 12 1020.5 - 0.0 - - - - - - -
21/12:30pm 21.2 E 7 11 1020.5 - 0.0 - - - - - - -
21/12:00pm 20.5 E 8 11 1020.9 - 0.0 - - - - - - -
21/11:30am 21.0 SE 7 10 1020.9 - 0.0 - - - - - - -
21/11:00am 21.1 SSE 7 9 1020.9 - 0.0 - - - - - - -
21/10:30am 20.3 SSW 6 8 1021.0 - 0.0 - - - - - - -
21/10:00am 19.8 S 7 9 1020.7 - 0.0 - - - - - - -
21/09:30am 19.1 SSW 7 9 1020.5 - 0.0 - - - - - - -
21/09:00am 18.6 SSW 7 9 1020.4 - 0.0 - - - - - - -
21/08:30am 18.1 SSW 7 9 1020.0 - 0.0 - - - - - - -
21/08:00am 17.7 SW 7 9 1019.6 - 0.0 - - - - - - -
21/07:30am 17.5 SW 6 8 1019.1 - 0.0 - - - - - - -
21/07:00am 16.7 SW 5 7 1018.7 - 0.0 - - - - - - -
21/06:30am 16.3 SW 6 8 1018.4 - 0.0 - - - - - - -
21/06:00am 16.5 SW 5 7 1018.1 - 0.0 - - - - - - -
21/05:30am 16.9 SSW 5 7 1017.6 - 0.0 - - - - - - -
21/05:00am 16.8 SSW 5 7 1017.2 - 0.0 - - - - - - -
21/04:30am 17.3 SSW 5 7 1017.1 - 0.0 - - - - - - -
21/04:00am 17.2 SW 5 7 1017.1 - 0.0 - - - - - - -
21/03:30am 17.3 SSW 3 6 1017.2 - 0.0 - - - - - - -
21/03:00am 17.3 WSW 5 7 1017.0 - 0.0 - - - - - - -
21/02:30am 17.8 W 5 7 1017.0 - 0.0 - - - - - - -
21/02:00am 18.1 WNW 6 8 1017.0 - 0.0 - - - - - - -
21/01:30am 18.6 WNW 7 9 1017.1 - 0.0 - - - - - - -
21/01:00am 18.8 WNW 7 9 1017.2 - 0.0 - - - - - - -
21/12:30am 18.6 WNW 5 7 1017.1 - 0.0 - - - - - - -
21/12:00am 19.4 WNW 7 9 1016.9 - 0.0 - - - - - - -
 
Date/Time
EDT
Temp
°C
Wind Pressure Rain since
9am
mm
Weather Cloud Vis
km
Sea
Height
m
Swell
Dir  Spd
kts
Gust
kts
hPa Trend Height
m
Period
s
Dir
20/11:30pm 19.6 NW 7 9 1016.6 - 0.0 - - - - - - -
20/11:00pm 19.3 WNW 7 9 1016.2 - 0.0 - - - - - - -
20/10:30pm 19.8 NNW 5 7 1015.9 - 0.0 - - - - - - -
20/10:00pm 20.1 NE 5 7 1015.6 - 0.0 - - - - - - -
20/09:30pm 20.0 NE 5 7 1015.1 - 0.0 - - - - - - -
20/09:00pm 19.8 NE 5 7 1014.7 - 0.0 - - - - - - -
20/08:30pm 19.7 NNE 5 7 1014.1 - 0.0 - - - - - - -
20/08:00pm 19.7 NE 5 7 1013.4 - 0.0 - - - - - - -
20/07:30pm 19.7 NE 5 7 1012.6 - 0.0 - - - - - - -
20/07:00pm 19.6 ENE 6 7 1012.0 - 0.0 - - - - - - -
20/06:30pm 19.7 E 7 11 1011.4 - 0.0 - - - - - - -
20/06:00pm 20.0 ENE 8 10 1010.9 - 0.0 - - - - - - -
20/05:30pm 20.3 E 8 10 1010.5 - 0.0 - - - - - - -
20/05:00pm 20.7 E 8 9 1010.0 - 0.0 - - - - - - -
20/04:30pm 20.4 ENE 8 10 1009.7 - 0.0 - - - - - - -
20/04:00pm 20.5 E 8 11 1009.2 - 0.0 - - - - - - -
20/03:30pm 20.6 ENE 10 12 1009.0 - 0.0 - - - - - - -
20/03:00pm 21.3 ENE 8 10 1008.9 - 0.0 - - - - - - -
20/02:30pm 20.8 E 8 10 1008.8 - 0.0 - - - - - - -
20/02:00pm 20.3 E 8 11 1008.8 - 0.0 - - - - - - -
20/01:30pm 20.6 ENE 8 10 1008.6 - 0.0 - - - - - - -
20/01:00pm 20.1 ENE 8 10 1008.4 - 0.0 - - - - - - -
20/12:30pm 19.2 ENE 7 9 1008.4 - 0.0 - - - - - - -
20/12:00pm 20.1 E 6 8 1008.5 - 0.0 - - - - - - -
20/11:30am 19.5 E 7 9 1008.6 - 0.0 - - - - - - -
20/11:00am 19.1 SSE 7 11 1008.6 - 0.0 - - - - - - -
20/10:30am 18.8 WNW 4 7 1008.8 - 0.0 - - - - - - -
20/10:00am 18.6 W 6 8 1008.7 - 0.0 - - - - - - -
20/09:30am 17.8 WNW 8 11 1008.8 - 0.0 - - - - - - -
20/09:00am 17.4 WNW 9 11 1008.7 - 0.2 - - - - - - -
20/08:30am 17.2 W 6 8 1008.6 - 0.2 - - - - - - -
20/08:00am 16.5 WNW 6 9 1008.5 - 0.2 - - - - - - -
20/07:30am 16.2 W 7 9 1008.2 - 0.2 - - - - - - -
20/07:00am 15.0 W 8 10 1007.9 - 0.2 - - - - - - -
20/06:30am 14.7 W 8 10 1007.6 - 0.2 - - - - - - -
20/06:00am 14.6 W 7 9 1007.3 - 0.2 - - - - - - -
20/05:30am 15.0 W 7 9 1007.1 - 0.2 - - - - - - -
20/05:00am 15.0 SW 7 10 1007.0 - 0.2 - - - - - - -
20/04:30am 15.2 SSW 8 10 1006.7 - 0.2 - - - - - - -
20/04:00am 15.5 S 9 11 1006.1 - 0.2 - - - - - - -
20/03:30am 15.7 S 12 16 1006.6 - 0.2 - - - - - - -
20/03:00am 15.8 S 13 18 1006.4 - 0.2 - - - - - - -
20/02:30am 15.9 S 14 19 1006.1 - 0.2 - - - - - - -
20/02:00am 16.1 S 16 19 1006.1 - 0.2 - - - - - - -
20/01:30am 16.4 S 17 20 1006.1 - 0.2 - - - - - - -
20/01:00am 16.8 SSE 18 23 1006.0 - 0.2 - - - - - - -
20/12:51am 17.7 SSW 12 21 1006.0 - 0.2 - - - - - - -
20/12:30am 18.6 WSW 7 8 1005.8 - 0.2 - - - - - - -
20/12:00am 18.5 W 6 8 1005.8 - 0.2 - - - - - - -
 
Date/Time
EDT
Temp
°C
Wind Pressure Rain since
9am
mm
Weather Cloud Vis
km
Sea
Height
m
Swell
Dir  Spd
kts
Gust
kts
hPa Trend Height
m
Period
s
Dir
19/11:30pm 18.8 SW 6 7 1005.8 - 0.2 - - - - - - -
19/11:00pm 18.9 SW 6 8 1005.4 - 0.2 - - - - - - -
19/10:30pm 18.9 SSE 6 10 1005.6 - 0.2 - - - - - - -
19/10:00pm 19.6 SW 8 9 1005.4 - 0.2 - - - - - - -
19/09:30pm 19.8 SW 6 8 1005.5 - 0.2 - - - - - - -
19/09:00pm 19.8 SW 3 4 1006.0 - 0.2 - - - - - - -
19/08:30pm 20.3 NE 4 7 1006.1 - 0.2 - - - - - - -
19/08:00pm 20.4 ENE 4 7 1006.0 - 0.2 - - - - - - -
19/07:30pm 20.1 E 6 9 1005.5 - 0.2 - - - - - - -
19/07:00pm 20.2 E 6 8 1005.2 - 0.2 - - - - - - -
19/06:30pm 20.3 ENE 6 8 1005.1 - 0.2 - - - - - - -
19/06:00pm 20.1 ENE 7 9 1005.1 - 0.2 - - - - - - -
19/05:30pm 20.5 ENE 7 9 1005.1 - 0.2 - - - - - - -
19/05:00pm 20.5 ENE 7 10 1005.2 - 0.2 - - - - - - -
19/04:30pm 20.3 ENE 8 11 1005.3 - 0.2 - - - - - - -
19/04:00pm 20.2 ENE 10 13 1005.5 - 0.2 - - - - - - -
19/03:30pm 20.6 E 10 13 1005.7 - 0.2 - - - - - - -
19/03:00pm 19.9 E 11 13 1006.0 - 0.2 - - - - - - -
19/02:30pm 20.1 E 9 12 1006.4 - 0.2 - - - - - - -
19/02:00pm 20.3 E 8 13 1006.7 - 0.2 - - - - - - -
19/01:30pm 19.9 E 8 12 1007.2 - 0.2 - - - - - - -
19/01:00pm 19.2 ESE 10 12 1007.5 - 0.2 - - - - - - -
19/12:30pm 19.4 ESE 7 10 1007.9 - 0.2 - - - - - - -
19/12:00pm 19.4 ESE 6 8 1008.3 - 0.2 - - - - - - -
19/11:30am 19.6 SE 6 9 1008.5 - 0.2 - - - - - - -
19/11:00am 19.2 SSW 4 7 1008.9 - 0.2 - - - - - - -

Other Formats:

Comma delimited format used in spreadsheet applications
http://www.bom.gov.au/fwo/IDN60701/IDN60701.94939.axf

JavaScript Object Notation format (JSON) in row-major order
http://www.bom.gov.au/fwo/IDN60701/IDN60701.94939.json